createdAt,value
2022-09-13T00:00:44.887Z,53.99
2022-09-13T00:06:08.805Z,54.15
2022-09-13T00:11:01.217Z,54.39
2022-09-13T00:16:01.201Z,54.58
2022-09-13T00:21:01.072Z,54.74
2022-09-13T00:26:01.006Z,54.90
2022-09-13T00:31:00.939Z,55.03
2022-09-13T00:36:00.881Z,55.21
2022-09-13T00:41:00.810Z,55.41
2022-09-13T00:46:00.783Z,55.52
2022-09-13T00:51:00.681Z,55.60
2022-09-13T00:56:00.617Z,55.67
2022-09-13T01:01:00.571Z,55.75
2022-09-13T01:06:00.475Z,55.84
2022-09-13T01:11:00.404Z,55.97
2022-09-13T01:16:00.419Z,56.12
2022-09-13T01:21:00.290Z,56.30
2022-09-13T01:26:00.201Z,56.44
2022-09-13T01:31:00.115Z,56.59
2022-09-13T01:36:00.099Z,56.72
2022-09-13T01:41:02.972Z,56.78
2022-09-13T01:46:00.052Z,56.84
2022-09-13T01:50:59.887Z,56.90
2022-09-13T01:55:59.837Z,57.00
2022-09-13T02:00:59.832Z,57.04
2022-09-13T02:05:59.707Z,57.11
2022-09-13T02:10:59.622Z,57.18
2022-09-13T02:15:59.543Z,57.23
2022-09-13T02:20:59.473Z,57.26
2022-09-13T02:25:59.437Z,57.35
2022-09-13T02:30:59.359Z,57.41
2022-09-13T02:35:59.289Z,57.45
2022-09-13T02:40:59.220Z,57.53
2022-09-13T02:45:59.241Z,57.61
2022-09-13T02:50:59.100Z,57.71
2022-09-13T02:55:59.022Z,57.82
2022-09-13T03:00:59.011Z,57.91
2022-09-13T03:05:58.892Z,57.99
2022-09-13T03:10:58.874Z,58.06
2022-09-13T03:15:58.755Z,58.17
2022-09-13T03:20:58.712Z,58.28
2022-09-13T03:25:58.625Z,58.38
2022-09-13T03:30:58.568Z,58.48
2022-09-13T03:35:58.478Z,58.56
2022-09-13T03:40:58.429Z,58.63
2022-09-13T03:45:58.393Z,58.68
2022-09-13T03:50:58.281Z,58.74
2022-09-13T03:55:58.193Z,58.80
2022-09-13T04:00:58.181Z,58.88
2022-09-13T04:05:58.093Z,58.98
2022-09-13T04:10:57.995Z,59.05
2022-09-13T04:16:07.051Z,59.10
2022-09-13T04:20:59.889Z,59.20
2022-09-13T04:25:59.862Z,59.30
2022-09-13T04:30:59.782Z,59.34
2022-09-13T04:35:59.682Z,59.40
2022-09-13T04:40:59.655Z,59.46
2022-09-13T04:45:59.652Z,59.54
2022-09-13T04:50:59.486Z,59.57
2022-09-13T04:55:59.443Z,59.64
2022-09-13T05:01:00.357Z,59.69
2022-09-13T05:05:59.313Z,59.71
2022-09-13T05:10:59.239Z,59.77
2022-09-13T05:15:59.257Z,59.83
2022-09-13T05:20:59.120Z,59.82
2022-09-13T05:25:59.032Z,59.80
2022-09-13T05:30:59.017Z,59.76
2022-09-13T05:35:58.907Z,59.76
2022-09-13T05:40:58.882Z,59.72
2022-09-13T05:45:58.804Z,59.68
2022-09-13T05:50:59.007Z,59.61
2022-09-13T05:55:58.663Z,59.52
2022-09-13T06:00:58.590Z,59.48
2022-09-13T06:05:58.532Z,59.40
2022-09-13T06:10:58.473Z,59.35
2022-09-13T06:15:58.482Z,59.30
2022-09-13T06:20:58.310Z,59.25
2022-09-13T06:25:58.245Z,59.23
2022-09-13T06:30:58.244Z,59.09
2022-09-13T06:35:58.117Z,58.98
2022-09-13T06:40:58.049Z,58.94
2022-09-13T06:45:58.037Z,59.01
2022-09-13T06:50:57.998Z,58.98
2022-09-13T06:55:57.889Z,58.88
2022-09-13T07:00:58.024Z,58.71
2022-09-13T07:05:57.842Z,58.48
2022-09-13T07:10:57.654Z,57.88
2022-09-13T07:15:57.642Z,57.30
2022-09-13T07:20:57.510Z,56.69
2022-09-13T07:25:57.453Z,57.00
2022-09-13T07:30:57.389Z,56.74
2022-09-13T07:35:57.318Z,56.44
2022-09-13T07:40:57.254Z,55.99
2022-09-13T07:45:57.232Z,55.72
2022-09-13T07:50:57.109Z,55.21
2022-09-13T07:55:57.102Z,54.82
2022-09-13T08:00:56.981Z,54.81
2022-09-13T08:05:56.954Z,55.09
2022-09-13T08:10:56.856Z,55.22
2022-09-13T08:15:56.829Z,55.50
2022-09-13T08:20:56.718Z,56.01
2022-09-13T08:25:56.649Z,56.30
2022-09-13T08:30:56.601Z,56.46
2022-09-13T08:35:56.503Z,56.39
2022-09-13T08:40:56.462Z,56.17
2022-09-13T08:45:56.518Z,55.70
2022-09-13T08:50:56.313Z,55.24
2022-09-13T08:55:56.261Z,55.11
2022-09-13T09:00:56.189Z,55.08
2022-09-13T09:05:56.250Z,54.91
2022-09-13T09:10:56.058Z,54.67
2022-09-13T09:15:56.140Z,54.28
2022-09-13T09:20:56.038Z,53.61
2022-09-13T09:25:55.855Z,52.78
2022-09-13T09:30:55.836Z,50.81
2022-09-13T09:35:55.732Z,50.08
2022-09-13T09:40:55.714Z,48.77
2022-09-13T09:45:55.601Z,49.08
2022-09-13T09:50:55.575Z,48.79
2022-09-13T09:55:55.512Z,42.33
2022-09-13T10:00:55.408Z,41.26
2022-09-13T10:05:55.318Z,41.08
2022-09-13T10:10:55.279Z,37.75
2022-09-13T10:15:55.198Z,39.38
2022-09-13T10:20:55.122Z,38.67
2022-09-13T10:25:55.056Z,41.95
2022-09-13T10:30:55.041Z,42.80
2022-09-13T10:35:54.946Z,40.73
2022-09-13T10:40:54.870Z,40.16
2022-09-13T10:45:54.892Z,40.24
2022-09-13T10:50:54.770Z,40.17
2022-09-13T10:55:54.682Z,39.82
2022-09-13T11:00:54.721Z,38.12
2022-09-13T11:05:54.542Z,36.63
2022-09-13T11:10:54.495Z,33.72
2022-09-13T11:15:54.443Z,32.47
2022-09-13T11:20:54.315Z,33.59
2022-09-13T11:25:54.283Z,35.08
2022-09-13T11:30:54.222Z,33.96
2022-09-13T11:35:54.178Z,33.60
2022-09-13T11:40:54.116Z,35.78
2022-09-13T11:45:54.229Z,34.16
2022-09-13T11:50:54.041Z,31.09
2022-09-13T11:55:53.905Z,35.10
2022-09-13T12:00:53.845Z,36.18
2022-09-13T12:05:53.804Z,35.54
2022-09-13T12:10:53.779Z,34.48
2022-09-13T12:15:53.628Z,33.68
2022-09-13T12:20:53.558Z,35.38
2022-09-13T12:25:53.587Z,35.11
2022-09-13T12:30:53.477Z,33.83
2022-09-13T12:35:53.410Z,33.51
2022-09-13T12:40:53.324Z,33.96
2022-09-13T12:45:53.344Z,35.97
2022-09-13T12:50:53.187Z,37.97
2022-09-13T12:55:53.142Z,39.18
2022-09-13T13:00:53.141Z,40.05
2022-09-13T13:05:53.011Z,40.57
2022-09-13T13:10:52.932Z,40.76
2022-09-13T13:15:52.911Z,40.62
2022-09-13T13:20:53.146Z,40.94
2022-09-13T13:25:52.744Z,41.29
2022-09-13T13:30:52.898Z,41.67
2022-09-13T13:35:52.643Z,42.31
2022-09-13T13:40:52.733Z,43.26
2022-09-13T13:45:52.531Z,44.04
2022-09-13T13:50:52.399Z,44.35
2022-09-13T13:55:52.334Z,44.41
2022-09-13T14:00:52.327Z,44.37
2022-09-13T14:05:52.230Z,44.29
2022-09-13T14:10:52.127Z,44.28
2022-09-13T14:15:52.079Z,44.39
2022-09-13T14:20:52.052Z,44.50
2022-09-13T14:25:51.934Z,44.86
2022-09-13T14:30:51.937Z,45.37
2022-09-13T14:35:52.263Z,45.71
2022-09-13T14:40:51.723Z,46.17
2022-09-13T14:45:51.759Z,46.51
2022-09-13T14:50:51.669Z,46.88
2022-09-13T14:55:51.535Z,46.95
2022-09-13T15:00:51.533Z,47.22
2022-09-13T15:05:51.455Z,47.53
2022-09-13T15:10:51.346Z,47.67
2022-09-13T15:15:51.402Z,47.61
2022-09-13T15:20:51.237Z,47.73
2022-09-13T15:25:51.563Z,48.06
2022-09-13T15:30:51.056Z,48.39
2022-09-13T15:35:51.009Z,48.59
2022-09-13T15:40:50.940Z,48.76
2022-09-13T15:45:50.882Z,49.00
2022-09-13T15:50:50.828Z,49.42
2022-09-13T15:55:50.728Z,49.86
2022-09-13T16:00:50.752Z,50.28
2022-09-13T16:05:50.627Z,50.65
2022-09-13T16:10:50.520Z,51.07
2022-09-13T16:15:53.583Z,51.51
2022-09-13T16:20:51.424Z,51.92
2022-09-13T16:25:50.360Z,52.27
2022-09-13T16:30:50.263Z,52.63
2022-09-13T16:35:50.233Z,53.06
2022-09-13T16:40:50.341Z,53.48
2022-09-13T16:45:50.101Z,53.87
2022-09-13T16:50:50.050Z,54.29
2022-09-13T16:55:49.974Z,54.62
2022-09-13T17:00:49.893Z,54.95
2022-09-13T17:05:49.966Z,55.28
2022-09-13T17:10:49.777Z,55.57
2022-09-13T17:15:52.648Z,55.86
2022-09-13T17:20:50.634Z,56.12
2022-09-13T17:25:49.572Z,56.36
2022-09-13T17:30:49.631Z,56.61
2022-09-13T17:35:49.421Z,56.90
2022-09-13T17:40:49.362Z,57.17
2022-09-13T17:45:49.654Z,57.45
2022-09-13T17:50:49.215Z,57.69
2022-09-13T17:55:49.250Z,57.92
2022-09-13T18:00:49.114Z,58.13
2022-09-13T18:05:49.085Z,58.31
2022-09-13T18:11:10.630Z,58.45
2022-09-13T18:15:49.963Z,58.63
2022-09-13T18:20:48.890Z,58.83
2022-09-13T18:25:49.704Z,58.98
2022-09-13T18:30:48.820Z,59.14
2022-09-13T18:35:48.640Z,59.31
2022-09-13T18:40:48.579Z,59.38
2022-09-13T18:45:48.512Z,59.55
2022-09-13T18:50:48.446Z,59.72
2022-09-13T18:55:48.418Z,59.85
2022-09-13T19:00:49.842Z,60.02
2022-09-13T19:05:48.316Z,60.18
2022-09-13T19:10:48.173Z,60.35
2022-09-13T19:15:48.163Z,60.50
2022-09-13T19:20:48.040Z,60.67
2022-09-13T19:25:48.361Z,60.82
2022-09-13T19:30:47.976Z,61.00
2022-09-13T19:35:47.902Z,61.15
2022-09-13T19:40:47.799Z,61.30
2022-09-13T19:45:49.033Z,61.43
2022-09-13T19:50:47.709Z,61.55
2022-09-13T19:55:47.675Z,61.68
2022-09-13T20:00:48.436Z,61.79
2022-09-13T20:05:47.461Z,61.92
2022-09-13T20:10:47.488Z,62.03
2022-09-13T20:15:47.372Z,62.15
2022-09-13T20:20:47.248Z,62.28
2022-09-13T20:25:48.204Z,62.39
2022-09-13T20:30:47.126Z,62.51
2022-09-13T20:35:47.145Z,62.64
2022-09-13T20:40:46.991Z,62.78
2022-09-13T20:45:47.299Z,62.89
2022-09-13T20:50:47.805Z,62.97
2022-09-13T20:55:46.805Z,63.06
2022-09-13T21:00:47.694Z,63.15
2022-09-13T21:05:46.680Z,63.19
2022-09-13T21:10:46.664Z,63.31
2022-09-13T21:15:46.505Z,63.39
2022-09-13T21:20:46.571Z,63.50
2022-09-13T21:25:46.393Z,63.63
2022-09-13T21:30:46.395Z,63.76
2022-09-13T21:35:46.271Z,63.87
2022-09-13T21:40:46.325Z,63.99
2022-09-13T21:45:46.226Z,64.08
2022-09-13T21:50:46.057Z,64.16
2022-09-13T21:55:46.046Z,64.21
2022-09-13T22:00:45.956Z,64.29
2022-09-13T22:05:45.855Z,64.36
2022-09-13T22:10:45.813Z,64.47
2022-09-13T22:15:45.878Z,64.56
2022-09-13T22:20:45.640Z,64.64
2022-09-13T22:25:45.757Z,64.71
2022-09-13T22:30:45.600Z,64.82
2022-09-13T22:35:45.464Z,64.86
2022-09-13T22:40:45.431Z,64.92
2022-09-13T22:45:45.380Z,64.99
2022-09-13T22:50:45.247Z,65.07
2022-09-13T22:55:45.209Z,65.17
2022-09-13T23:00:45.199Z,65.25
2022-09-13T23:05:45.060Z,65.29
2022-09-13T23:10:45.005Z,65.38
2022-09-13T23:15:45.014Z,65.44
2022-09-13T23:20:44.861Z,65.51
2022-09-13T23:25:44.873Z,65.57
2022-09-13T23:30:44.804Z,65.65
2022-09-13T23:35:44.664Z,65.70
2022-09-13T23:40:44.621Z,65.76
2022-09-13T23:45:44.705Z,65.81
2022-09-13T23:50:44.600Z,65.86
2022-09-13T23:55:44.424Z,65.93
